METAR Data
IDs: Format: Raw Decoded Include TAF

Data at: 2140 UTC 18 Sep 2018

KAVK 182135Z AUTO 21016KT 10SM BKN065 35/18 A2985 RMK AO2
KAVK 182115Z AUTO 20016G24KT 10SM SCT065 35/18 A2986 RMK AO2
KAVK 182055Z AUTO 22014G21KT 10SM BKN065 35/18 A2986 RMK AO2
KAVK 182035Z AUTO 20015G22KT 10SM SCT065 35/18 A2987 RMK AO2
KAVK 182015Z AUTO 22018G24KT 10SM CLR 35/18 A2987 RMK AO2
KAVK 181955Z AUTO 21016G21KT 10SM CLR 35/18 A2987 RMK AO2
KAVK 181935Z AUTO 20017G23KT 10SM FEW060 35/18 A2988 RMK AO2
KAVK 181915Z AUTO 22016KT 10SM CLR 35/18 A2989 RMK AO2
KAVK 181855Z AUTO 20014G22KT 10SM CLR 34/18 A2990 RMK AO2
KAVK 181835Z AUTO 22019KT 10SM CLR 34/18 A2990 RMK AO2
KAVK 181815Z AUTO 22017G23KT 10SM CLR 34/18 A2991 RMK AO2
KAVK 181755Z AUTO 22016G24KT 10SM CLR 33/19 A2992 RMK AO2
KAVK 181735Z AUTO 20017G24KT 10SM CLR 33/19 A2994 RMK AO2
KAVK 181715Z AUTO 20016G30KT 160V220 10SM CLR 33/19 A2994 RMK AO2
KAVK 181655Z AUTO 20017G23KT 10SM CLR 32/19 A2995 RMK AO2
KAVK 181635Z AUTO 22015G21KT 10SM CLR 32/19 A2996 RMK AO2
KAVK 181615Z AUTO 21013KT 10SM CLR 31/20 A2996 RMK AO2
KAVK 181555Z AUTO 22012KT 10SM CLR 30/20 A2997 RMK AO2
KAVK 181535Z AUTO 20013KT 10SM CLR 30/20 A2997 RMK AO2
KAVK 181515Z AUTO 21014KT 10SM CLR 29/20 A2997 RMK AO2
KAVK 181455Z AUTO 21010KT 10SM CLR 28/20 A2997 RMK AO2
KAVK 181435Z AUTO 19009KT 10SM CLR 27/20 A2997 RMK AO2
KAVK 181415Z AUTO 20008KT 10SM CLR 26/20 A2997 RMK AO2
KAVK 181355Z AUTO 19007KT 10SM CLR 24/20 A2998 RMK AO2
KAVK 181335Z AUTO 19007KT 10SM CLR 23/20 A2998 RMK AO2
KAVK 181315Z AUTO 18007KT 10SM CLR 22/20 A2998 RMK AO2
KAVK 181255Z AUTO 18007KT 10SM CLR 21/20 A2998 RMK AO2
KAVK 181235Z AUTO 18007KT 10SM CLR 20/20 A2997 RMK AO2
KAVK 181215Z AUTO 16008KT 10SM CLR 20/20 A2996 RMK AO2
KAVK 181155Z AUTO 17007KT 10SM CLR 20/20 A2996 RMK AO2
KAVK 181135Z AUTO 17007KT 10SM CLR 20/20 A2996 RMK AO2
KAVK 181115Z AUTO 17007KT 10SM CLR 21/20 A2995 RMK AO2
KAVK 181055Z AUTO 17007KT 10SM CLR 21/20 A2995 RMK AO2
KAVK 181035Z AUTO 17007KT 10SM CLR 21/20 A2995 RMK AO2
KAVK 181015Z AUTO 17007KT 10SM CLR 21/20 A2995 RMK AO2
KAVK 180955Z AUTO 16007KT 10SM CLR 21/20 A2995 RMK AO2
KAVK 180935Z AUTO 16007KT 10SM CLR 21/20 A2995 RMK AO2
KAVK 180915Z AUTO 16008KT 10SM CLR 21/20 A2995 RMK AO2
KAVK 180855Z AUTO 17005KT 10SM CLR 21/20 A2995 RMK AO2
KAVK 180835Z AUTO 17007KT 10SM CLR 21/20 A2995 RMK AO2
KAVK 180815Z AUTO 18007KT 10SM CLR 22/20 A2995 RMK AO2
KAVK 180755Z AUTO 18006KT 10SM CLR 22/20 A2995 RMK AO2
KAVK 180735Z AUTO 18007KT 10SM CLR 22/20 A2995 RMK AO2
KAVK 180715Z AUTO 17007KT 10SM CLR 22/20 A2995 RMK AO2
KAVK 180655Z AUTO 17007KT 10SM CLR 22/20 A2996 RMK AO2
KAVK 180635Z AUTO 17007KT 10SM CLR 23/20 A2996 RMK AO2
KAVK 180615Z AUTO 16006KT 10SM CLR 23/20 A2996 RMK AO2
KAVK 180555Z AUTO 16007KT 10SM CLR 23/20 A2996 RMK AO2
KAVK 180535Z AUTO 16006KT 10SM CLR 24/20 A2996 RMK AO2
KAVK 180515Z AUTO 16007KT 10SM CLR 24/20 A2996 RMK AO2
KAVK 180455Z AUTO 16007KT 10SM CLR 24/20 A2996 RMK AO2
KAVK 180435Z AUTO 16007KT 10SM CLR 24/20 A2996 RMK AO2
KAVK 180415Z AUTO 17009KT 10SM CLR 25/20 A2995 RMK AO2
KAVK 180355Z AUTO 17008KT 10SM CLR 25/20 A2995 RMK AO2
KAVK 180335Z AUTO 17009KT 10SM CLR 25/20 A2995 RMK AO2
KAVK 180315Z AUTO 17009KT 10SM CLR 26/20 A2995 RMK AO2
KAVK 180255Z AUTO 17007KT 10SM CLR 25/20 A2994 RMK AO2
KAVK 180235Z AUTO 17007KT 10SM CLR 26/20 A2994 RMK AO2
KAVK 180215Z AUTO 16008KT 10SM CLR 27/20 A2993 RMK AO2
KAVK 180155Z AUTO 16009KT 10SM CLR 27/20 A2992 RMK AO2
KAVK 180135Z AUTO 17009KT 10SM CLR 28/19 A2991 RMK AO2
KAVK 180115Z AUTO 17009KT 10SM CLR 28/19 A2991 RMK AO2
KAVK 180055Z AUTO 17010KT 10SM CLR 29/19 A2990 RMK AO2
KAVK 180035Z AUTO 17010KT 10SM CLR 30/19 A2990 RMK AO2
KAVK 180015Z AUTO 17011KT 10SM CLR 31/19 A2990 RMK AO2
KAVK 172355Z AUTO 17014KT 10SM CLR 32/19 A2990 RMK AO2
KAVK 172335Z AUTO 17016KT 10SM CLR 32/18 A2989 RMK AO2
KAVK 172315Z AUTO 18013G18KT 10SM CLR 33/18 A2989 RMK AO2
KAVK 172255Z AUTO 17012G21KT 10SM CLR 34/18 A2989 RMK AO2
KAVK 172235Z AUTO 19016G22KT 10SM CLR 34/18 A2990 RMK AO2
KAVK 172215Z AUTO 18015KT 10SM CLR 34/18 A2990 RMK AO2
KAVK 172155Z AUTO 17012G21KT 10SM FEW060 FEW070 34/19 A2990 RMK AO2
KAVK 172135Z AUTO 18016G22KT 10SM FEW060 FEW070 34/19 A2990 RMK AO2
KAVK 172115Z AUTO 20012G20KT 10SM CLR 34/19 A2991 RMK AO2
KAVK 172055Z AUTO 18011G20KT 10SM FEW060 34/19 A2991 RMK AO2
KAVK 172035Z AUTO 22012G19KT 10SM FEW060 34/19 A2991 RMK AO2
KAVK 172015Z AUTO 20013G22KT 10SM FEW055 FEW065 34/19 A2992 RMK AO2
KAVK 171955Z AUTO 18011G19KT 10SM SCT055 34/19 A2992 RMK AO2
KAVK 171935Z AUTO 20012G19KT 10SM FEW055 FEW080 34/19 A2993 RMK AO2
KAVK 171915Z AUTO 18012G20KT 9SM SCT050 SCT065 SCT080 34/20 A2994 RMK AO2
KAVK 171855Z AUTO 20013G18KT 9SM FEW050 FEW055 33/20 A2995 RMK AO2
KAVK 171835Z AUTO 19013G21KT 9SM CLR 33/20 A2995 RMK AO2
KAVK 171815Z AUTO 20015G21KT 10SM CLR 33/20 A2996 RMK AO2
KAVK 171755Z AUTO 20013G19KT 10SM CLR 33/20 A2997 RMK AO2
KAVK 171735Z AUTO 21012G18KT 10SM CLR 33/20 A2997 RMK AO2
KAVK 171715Z AUTO 21014KT 10SM CLR 32/21 A2998 RMK AO2
KAVK 171655Z AUTO 21012KT 10SM CLR 32/21 A2998 RMK AO2
KAVK 171635Z AUTO 21011KT 10SM CLR 31/21 A2999 RMK AO2
KAVK 171615Z AUTO 20008G13KT 10SM FEW065 30/22 A2999 RMK AO2
KAVK 171555Z AUTO 20010KT 10SM FEW065 29/22 A3000 RMK AO2
KAVK 171535Z AUTO 20011KT 10SM CLR 29/22 A3000 RMK AO2
KAVK 171515Z AUTO 20011KT 10SM CLR 28/22 A3000 RMK AO2
KAVK 171455Z AUTO 19012KT 10SM CLR 27/22 A2999 RMK AO2
KAVK 171435Z AUTO 19009KT 10SM CLR 26/22 A2999 RMK AO2
KAVK 171415Z AUTO 20010KT 10SM CLR 26/22 A2999 RMK AO2
KAVK 171355Z AUTO 20010KT 10SM CLR 25/22 A2999 RMK AO2
KAVK 171335Z AUTO 20008KT 9SM CLR 24/22 A2999 RMK AO2
KAVK 171315Z AUTO 21006KT 9SM CLR 23/23 A2998 RMK AO2
KAVK 171255Z AUTO 19005KT 7SM CLR 22/22 A2998 RMK AO2
KAVK 171235Z AUTO 17006KT 7SM CLR 21/21 A2998 RMK AO2
KAVK 171215Z AUTO 18006KT 8SM CLR 21/21 A2997 RMK AO2
KAVK 171155Z AUTO 17006KT 8SM CLR 21/21 A2997 RMK AO2
KAVK 171135Z AUTO 19006KT 7SM CLR 21/21 A2996 RMK AO2
KAVK 171115Z AUTO 18005KT 7SM CLR 21/21 A2996 RMK AO2
KAVK 171055Z AUTO 19005KT 7SM CLR 21/21 A2996 RMK AO2
KAVK 171035Z AUTO 17006KT 7SM CLR 21/21 A2996 RMK AO2
KAVK 171015Z AUTO 17006KT 7SM CLR 21/21 A2996 RMK AO2
KAVK 170955Z AUTO 17007KT 7SM CLR 21/21 A2996 RMK AO2